YSSY/SYD METAR and TAF weather

Enter ICAO airport designator
Station Type Date Time Source
YSSY METAR 2019/12/13 03:00 UTC NOAA

YSSY 130300Z 11013KT 9999 SCT028 21/13 Q1014 NOSIG


Station Type Date Time Source
YSSY Decoded METAR 2019/12/13 03:00 UTC NOAA

Sydney Airport, Australia (YSSY) 33-57S 151-11E 3M
Dec 12, 2019 - 10:00 PM EST / 2019.12.13 0300 UTC
Wind: from the ESE (110 degrees) at 15 MPH (13 KT):0
Visibility: greater than 7 mile(s):0
Sky conditions: partly cloudy
Temperature: 69 F (21 C)
Dew Point: 55 F (13 C)
Relative Humidity: 60%
Pressure (altimeter): 29.94 in. Hg (1014 hPa)
ob: YSSY 130300Z 11013KT 9999 SCT028 21/13 Q1014 NOSIG
cycle: 3

Station Type Date Time Source
YSSY TAF 2019/12/12 18:01 UTC NOAA

TAF YSSY 121644Z 1218/1400 14010KT 9999 FU BKN025
FM130000 10010KT 9999 FU SCT025 BKN035
FM130800 06008KT 9999 FU BKN025
FM131500 01005KT 9000 FU SCT025
FM132100 34005KT 8000 FU FEW035

Example: see airport list